sensor_id;sensor_type;location;lat;lon;timestamp;pressure;altitude;pressure_sealevel;temperature;humidity
23643;BME280;11998;55.788;37.572;2023-04-24T00:00:13;98691.78;;;76.19;3.51
23643;BME280;11998;55.788;37.572;2023-04-24T00:01:14;98694.22;;;75.88;3.67
23643;BME280;11998;55.788;37.572;2023-04-24T00:02:15;98701.03;;;75.94;3.73
23643;BME280;11998;55.788;37.572;2023-04-24T00:03:15;98698.69;;;76.31;3.79
23643;BME280;11998;55.788;37.572;2023-04-24T00:04:16;98696.38;;;75.45;3.85
23643;BME280;11998;55.788;37.572;2023-04-24T00:05:17;98682.00;;;74.41;4.23
23643;BME280;11998;55.788;37.572;2023-04-24T00:06:18;98687.69;;;74.99;3.87
23643;BME280;11998;55.788;37.572;2023-04-24T00:07:18;98692.28;;;75.42;4.02
23643;BME280;11998;55.788;37.572;2023-04-24T00:08:20;98703.34;;;75.57;3.66
23643;BME280;11998;55.788;37.572;2023-04-24T00:09:21;98691.13;;;75.58;3.83
23643;BME280;11998;55.788;37.572;2023-04-24T00:10:21;98700.47;;;75.81;4.00
23643;BME280;11998;55.788;37.572;2023-04-24T00:11:22;98688.03;;;76.43;3.90
23643;BME280;11998;55.788;37.572;2023-04-24T00:12:23;98692.00;;;75.83;3.80
23643;BME280;11998;55.788;37.572;2023-04-24T00:13:27;98689.78;;;75.92;3.91
23643;BME280;11998;55.788;37.572;2023-04-24T00:14:28;98682.19;;;74.64;4.13
23643;BME280;11998;55.788;37.572;2023-04-24T00:15:31;98686.00;;;75.35;4.20
23643;BME280;11998;55.788;37.572;2023-04-24T00:16:31;98687.94;;;75.29;3.86
23643;BME280;11998;55.788;37.572;2023-04-24T00:17:32;98685.13;;;76.19;3.91
23643;BME280;11998;55.788;37.572;2023-04-24T00:18:33;98694.16;;;75.21;3.81
23643;BME280;11998;55.788;37.572;2023-04-24T00:19:35;98690.19;;;75.43;3.87
23643;BME280;11998;55.788;37.572;2023-04-24T00:20:36;98684.38;;;75.25;4.07
23643;BME280;11998;55.788;37.572;2023-04-24T00:21:36;98683.78;;;74.93;3.84
23643;BME280;11998;55.788;37.572;2023-04-24T00:22:37;98687.84;;;74.96;4.22
23643;BME280;11998;55.788;37.572;2023-04-24T00:23:38;98684.47;;;74.60;3.89
23643;BME280;11998;55.788;37.572;2023-04-24T00:24:39;98687.50;;;74.29;4.05
23643;BME280;11998;55.788;37.572;2023-04-24T00:25:39;98679.22;;;74.28;3.79
23643;BME280;11998;55.788;37.572;2023-04-24T00:26:40;98678.09;;;73.76;4.15
23643;BME280;11998;55.788;37.572;2023-04-24T00:27:40;98689.34;;;74.45;4.28
23643;BME280;11998;55.788;37.572;2023-04-24T00:28:41;98689.19;;;75.46;3.95
23643;BME280;11998;55.788;37.572;2023-04-24T00:29:42;98684.47;;;74.60;3.97
23643;BME280;11998;55.788;37.572;2023-04-24T00:30:42;98683.47;;;74.45;4.32
23643;BME280;11998;55.788;37.572;2023-04-24T00:31:43;98688.47;;;75.18;4.22
23643;BME280;11998;55.788;37.572;2023-04-24T00:32:44;98679.91;;;74.69;3.90
23643;BME280;11998;55.788;37.572;2023-04-24T00:33:44;98689.19;;;75.55;3.98
23643;BME280;11998;55.788;37.572;2023-04-24T00:34:45;98684.13;;;74.68;4.11
23643;BME280;11998;55.788;37.572;2023-04-24T00:35:45;98685.56;;;73.77;4.15
23643;BME280;11998;55.788;37.572;2023-04-24T00:36:46;98683.16;;;74.71;4.20
23643;BME280;11998;55.788;37.572;2023-04-24T00:37:47;98674.69;;;74.73;3.90
23643;BME280;11998;55.788;37.572;2023-04-24T00:38:47;98683.66;;;75.48;4.00
23643;BME280;11998;55.788;37.572;2023-04-24T00:39:48;98683.63;;;74.78;3.88
23643;BME280;11998;55.788;37.572;2023-04-24T00:40:49;98687.47;;;75.72;3.70
23643;BME280;11998;55.788;37.572;2023-04-24T00:41:50;98688.38;;;74.85;3.81
23643;BME280;11998;55.788;37.572;2023-04-24T00:42:51;98686.69;;;75.02;4.17
23643;BME280;11998;55.788;37.572;2023-04-24T00:43:52;98687.19;;;74.91;4.12
23643;BME280;11998;55.788;37.572;2023-04-24T00:44:53;98676.78;;;74.54;3.95
23643;BME280;11998;55.788;37.572;2023-04-24T00:45:54;98683.94;;;74.25;3.99
23643;BME280;11998;55.788;37.572;2023-04-24T00:46:55;98676.41;;;74.06;4.38
23643;BME280;11998;55.788;37.572;2023-04-24T00:47:56;98680.56;;;74.63;4.33
23643;BME280;11998;55.788;37.572;2023-04-24T00:48:58;98679.22;;;74.28;4.36
23643;BME280;11998;55.788;37.572;2023-04-24T00:50:03;98679.91;;;74.69;4.04
23643;BME280;11998;55.788;37.572;2023-04-24T00:51:04;98679.09;;;74.41;4.11
23643;BME280;11998;55.788;37.572;2023-04-24T00:52:04;98678.13;;;73.85;3.92
23643;BME280;11998;55.788;37.572;2023-04-24T00:53:09;98684.22;;;74.18;4.16
23643;BME280;11998;55.788;37.572;2023-04-24T00:54:09;98673.69;;;74.21;4.19
23643;BME280;11998;55.788;37.572;2023-04-24T00:55:10;98684.72;;;74.17;4.08
23643;BME280;11998;55.788;37.572;2023-04-24T00:56:11;98671.78;;;74.45;4.00
23643;BME280;11998;55.788;37.572;2023-04-24T00:57:13;98682.50;;;74.85;3.87
23643;BME280;11998;55.788;37.572;2023-04-24T00:58:15;98679.22;;;74.28;3.91
23643;BME280;11998;55.788;37.572;2023-04-24T00:59:18;98676.78;;;74.26;4.13
23643;BME280;11998;55.788;37.572;2023-04-24T01:00:19;98676.41;;;73.57;4.10
23643;BME280;11998;55.788;37.572;2023-04-24T01:01:20;98681.81;;;73.36;4.07
23643;BME280;11998;55.788;37.572;2023-04-24T01:02:22;98676.34;;;73.16;4.34
23643;BME280;11998;55.788;37.572;2023-04-24T01:03:29;98673.22;;;73.11;4.03
23643;BME280;11998;55.788;37.572;2023-04-24T01:04:30;98677.25;;;73.35;4.35
23643;BME280;11998;55.788;37.572;2023-04-24T01:05:31;98680.28;;;73.53;4.09
23643;BME280;11998;55.788;37.572;2023-04-24T01:06:32;98675.91;;;73.27;4.25
23643;BME280;11998;55.788;37.572;2023-04-24T01:07:34;98676.56;;;73.62;4.42
23643;BME280;11998;55.788;37.572;2023-04-24T01:08:35;98664.53;;;72.76;3.98
23643;BME280;11998;55.788;37.572;2023-04-24T01:09:44;98672.84;;;73.62;4.40
23643;BME280;11998;55.788;37.572;2023-04-24T01:10:47;98666.06;;;73.65;4.00
23643;BME280;11998;55.788;37.572;2023-04-24T01:11:49;98663.63;;;73.63;4.17
23643;BME280;11998;55.788;37.572;2023-04-24T01:12:50;98669.53;;;73.82;4.17
23643;BME280;11998;55.788;37.572;2023-04-24T01:13:50;98676.47;;;73.75;4.26
23643;BME280;11998;55.788;37.572;2023-04-24T01:14:51;98666.66;;;73.19;4.35
23643;BME280;11998;55.788;37.572;2023-04-24T01:15:52;98668.56;;;73.44;4.03
23643;BME280;11998;55.788;37.572;2023-04-24T01:16:52;98669.59;;;72.98;4.18
23643;BME280;11998;55.788;37.572;2023-04-24T01:17:53;98669.81;;;73.12;4.18
23643;BME280;11998;55.788;37.572;2023-04-24T01:18:53;98677.03;;;72.99;4.39
23643;BME280;11998;55.788;37.572;2023-04-24T01:19:54;98673.53;;;73.66;3.99
23643;BME280;11998;55.788;37.572;2023-04-24T01:20:58;98671.34;;;73.88;4.13
23643;BME280;11998;55.788;37.572;2023-04-24T01:22:02;98662.63;;;73.04;4.10
23643;BME280;11998;55.788;37.572;2023-04-24T01:23:03;98670.47;;;72.51;4.25
23643;BME280;11998;55.788;37.572;2023-04-24T01:24:04;98660.19;;;72.24;4.34
23643;BME280;11998;55.788;37.572;2023-04-24T01:25:05;98663.63;;;71.85;4.40
23643;BME280;11998;55.788;37.572;2023-04-24T01:26:06;98675.72;;;72.43;4.54
23643;BME280;11998;55.788;37.572;2023-04-24T01:27:08;98667.00;;;73.00;4.50
23643;BME280;11998;55.788;37.572;2023-04-24T01:28:09;98673.81;;;73.59;3.94
23643;BME280;11998;55.788;37.572;2023-04-24T01:29:10;98666.78;;;72.94;4.13
23643;BME280;11998;55.788;37.572;2023-04-24T01:30:11;98667.72;;;73.44;4.24
23643;BME280;11998;55.788;37.572;2023-04-24T01:31:12;98666.00;;;73.87;4.13
23643;BME280;11998;55.788;37.572;2023-04-24T01:32:13;98661.59;;;73.91;3.95
23643;BME280;11998;55.788;37.572;2023-04-24T01:33:14;98666.19;;;73.21;4.16
23643;BME280;11998;55.788;37.572;2023-04-24T01:34:14;98668.22;;;74.59;3.77
23643;BME280;11998;55.788;37.572;2023-04-24T01:35:15;98661.94;;;74.02;4.21
23643;BME280;11998;55.788;37.572;2023-04-24T01:36:16;98668.19;;;74.32;3.66
23643;BME280;11998;55.788;37.572;2023-04-24T01:37:16;98668.47;;;73.26;4.37
23643;BME280;11998;55.788;37.572;2023-04-24T01:38:17;98665.00;;;73.90;4.18
23643;BME280;11998;55.788;37.572;2023-04-24T01:39:18;98665.50;;;72.38;4.35
23643;BME280;11998;55.788;37.572;2023-04-24T01:40:21;98654.06;;;71.97;4.41
23643;BME280;11998;55.788;37.572;2023-04-24T01:41:21;98659.16;;;72.53;4.10
23643;BME280;11998;55.788;37.572;2023-04-24T01:42:26;98661.69;;;73.07;4.03
23643;BME280;11998;55.788;37.572;2023-04-24T01:43:26;98660.19;;;72.59;4.20
23643;BME280;11998;55.788;37.572;2023-04-24T01:44:27;98659.56;;;72.29;4.32
23643;BME280;11998;55.788;37.572;2023-04-24T01:45:28;98662.56;;;72.04;4.41
23643;BME280;11998;55.788;37.572;2023-04-24T01:46:29;98655.31;;;73.00;4.41
23643;BME280;11998;55.788;37.572;2023-04-24T01:47:31;98656.19;;;71.83;4.57
23643;BME280;11998;55.788;37.572;2023-04-24T01:48:33;98656.28;;;72.75;4.24
23643;BME280;11998;55.788;37.572;2023-04-24T01:49:34;98662.91;;;72.75;4.42
23643;BME280;11998;55.788;37.572;2023-04-24T01:50:34;98661.53;;;72.32;4.36
23643;BME280;11998;55.788;37.572;2023-04-24T01:51:35;98654.22;;;72.62;4.31
23643;BME280;11998;55.788;37.572;2023-04-24T01:52:36;98668.09;;;72.71;4.52
23643;BME280;11998;55.788;37.572;2023-04-24T01:53:36;98659.38;;;70.80;4.57
23643;BME280;11998;55.788;37.572;2023-04-24T01:54:37;98657.88;;;71.94;4.44
23643;BME280;11998;55.788;37.572;2023-04-24T01:55:38;98649.28;;;71.90;4.43
23643;BME280;11998;55.788;37.572;2023-04-24T01:56:42;98649.53;;;72.30;4.62
23643;BME280;11998;55.788;37.572;2023-04-24T01:57:43;98652.59;;;72.61;4.39
23643;BME280;11998;55.788;37.572;2023-04-24T01:58:43;98656.94;;;73.22;4.20
23643;BME280;11998;55.788;37.572;2023-04-24T01:59:44;98647.72;;;72.11;4.59
23643;BME280;11998;55.788;37.572;2023-04-24T02:00:45;98660.94;;;72.37;4.07
23643;BME280;11998;55.788;37.572;2023-04-24T02:01:46;98649.38;;;71.10;4.68
23643;BME280;11998;55.788;37.572;2023-04-24T02:02:46;98649.13;;;71.94;4.42
23643;BME280;11998;55.788;37.572;2023-04-24T02:03:47;98651.59;;;71.95;4.56
23643;BME280;11998;55.788;37.572;2023-04-24T02:04:47;98658.38;;;71.54;4.54
23643;BME280;11998;55.788;37.572;2023-04-24T02:05:48;98650.69;;;71.35;4.79
23643;BME280;11998;55.788;37.572;2023-04-24T02:06:48;98646.50;;;71.87;4.43
23643;BME280;11998;55.788;37.572;2023-04-24T02:07:49;98655.75;;;72.20;4.59
23643;BME280;11998;55.788;37.572;2023-04-24T02:08:50;98650.56;;;72.02;4.56
23643;BME280;11998;55.788;37.572;2023-04-24T02:09:51;98653.34;;;71.93;4.68
23643;BME280;11998;55.788;37.572;2023-04-24T02:10:51;98655.47;;;70.70;4.81
23643;BME280;11998;55.788;37.572;2023-04-24T02:11:52;98649.66;;;70.70;4.79
23643;BME280;11998;55.788;37.572;2023-04-24T02:12:52;98649.78;;;70.38;4.93
23643;BME280;11998;55.788;37.572;2023-04-24T02:13:53;98654.50;;;69.99;4.81
23643;BME280;11998;55.788;37.572;2023-04-24T02:14:54;98650.72;;;69.14;4.90
23643;BME280;11998;55.788;37.572;2023-04-24T02:15:54;98649.78;;;70.38;4.93
23643;BME280;11998;55.788;37.572;2023-04-24T02:16:55;98656.00;;;70.82;4.91
23643;BME280;11998;55.788;37.572;2023-04-24T02:17:55;98644.34;;;70.24;4.78
23643;BME280;11998;55.788;37.572;2023-04-24T02:18:56;98660.94;;;71.90;4.64
23643;BME280;11998;55.788;37.572;2023-04-24T02:19:56;98649.84;;;71.21;4.61
23643;BME280;11998;55.788;37.572;2023-04-24T02:20:57;98655.47;;;71.79;4.44
23643;BME280;11998;55.788;37.572;2023-04-24T02:21:57;98666.03;;;70.35;4.72
23643;BME280;11998;55.788;37.572;2023-04-24T02:22:58;98647.88;;;70.77;4.78
23643;BME280;11998;55.788;37.572;2023-04-24T02:23:59;98653.41;;;68.41;5.23
23643;BME280;11998;55.788;37.572;2023-04-24T02:24:59;98653.78;;;69.07;5.29
23643;BME280;11998;55.788;37.572;2023-04-24T02:26:00;98657.00;;;70.01;4.78
23643;BME280;11998;55.788;37.572;2023-04-24T02:27:01;98663.97;;;70.03;4.85
23643;BME280;11998;55.788;37.572;2023-04-24T02:28:03;98668.34;;;70.57;4.84
23643;BME280;11998;55.788;37.572;2023-04-24T02:29:03;98666.41;;;70.95;4.73
23643;BME280;11998;55.788;37.572;2023-04-24T02:30:05;98666.88;;;71.87;4.35
23643;BME280;11998;55.788;37.572;2023-04-24T02:31:06;98662.59;;;69.39;5.05
23643;BME280;11998;55.788;37.572;2023-04-24T02:32:07;98658.47;;;68.61;5.10
23643;BME280;11998;55.788;37.572;2023-04-24T02:33:11;98662.75;;;68.06;5.49
23643;BME280;11998;55.788;37.572;2023-04-24T02:34:12;98664.38;;;69.53;5.02
23643;BME280;11998;55.788;37.572;2023-04-24T02:35:13;98662.69;;;69.16;4.98
23643;BME280;11998;55.788;37.572;2023-04-24T02:36:13;98664.84;;;69.84;4.95
23643;BME280;11998;55.788;37.572;2023-04-24T02:37:14;98671.66;;;69.25;5.01
23643;BME280;11998;55.788;37.572;2023-04-24T02:38:14;98665.59;;;69.16;5.42
23643;BME280;11998;55.788;37.572;2023-04-24T02:39:15;98677.41;;;70.30;4.80
23643;BME280;11998;55.788;37.572;2023-04-24T02:40:19;98672.59;;;71.65;4.65
23643;BME280;11998;55.788;37.572;2023-04-24T02:41:19;98672.50;;;71.01;4.77
23643;BME280;11998;55.788;37.572;2023-04-24T02:42:20;98683.66;;;71.82;4.77
23643;BME280;11998;55.788;37.572;2023-04-24T02:43:21;98670.50;;;69.75;5.16
23643;BME280;11998;55.788;37.572;2023-04-24T02:44:21;98667.59;;;69.19;5.17
23643;BME280;11998;55.788;37.572;2023-04-24T02:45:22;98669.59;;;69.22;5.00
23643;BME280;11998;55.788;37.572;2023-04-24T02:46:23;98672.47;;;69.94;4.65
23643;BME280;11998;55.788;37.572;2023-04-24T02:47:24;98674.94;;;67.94;5.22
23643;BME280;11998;55.788;37.572;2023-04-24T02:48:24;98676.59;;;68.18;5.34
23643;BME280;11998;55.788;37.572;2023-04-24T02:49:26;98679.34;;;69.68;5.03
23643;BME280;11998;55.788;37.572;2023-04-24T02:50:27;98676.13;;;69.98;5.00
23643;BME280;11998;55.788;37.572;2023-04-24T02:51:28;98684.28;;;70.20;4.92
23643;BME280;11998;55.788;37.572;2023-04-24T02:52:28;98677.75;;;70.16;5.12
23643;BME280;11998;55.788;37.572;2023-04-24T02:53:29;98690.81;;;71.14;4.69
23643;BME280;11998;55.788;37.572;2023-04-24T02:54:30;98676.66;;;69.77;4.98
23643;BME280;11998;55.788;37.572;2023-04-24T02:55:31;98684.56;;;69.76;4.92
23643;BME280;11998;55.788;37.572;2023-04-24T02:56:32;98688.47;;;69.86;4.95
23643;BME280;11998;55.788;37.572;2023-04-24T02:57:32;98682.94;;;70.24;4.84
23643;BME280;11998;55.788;37.572;2023-04-24T02:58:35;98695.31;;;71.03;4.79
23643;BME280;11998;55.788;37.572;2023-04-24T02:59:36;98696.78;;;72.73;4.36
23643;BME280;11998;55.788;37.572;2023-04-24T03:00:36;98690.34;;;72.30;4.32
23643;BME280;11998;55.788;37.572;2023-04-24T03:01:37;98696.84;;;73.04;4.11
23643;BME280;11998;55.788;37.572;2023-04-24T03:02:37;98698.25;;;72.43;4.34
23643;BME280;11998;55.788;37.572;2023-04-24T03:03:39;98699.69;;;71.23;4.57
23643;BME280;11998;55.788;37.572;2023-04-24T03:04:41;98699.28;;;71.89;4.61
23643;BME280;11998;55.788;37.572;2023-04-24T03:05:43;98699.16;;;73.09;4.21
23643;BME280;11998;55.788;37.572;2023-04-24T03:06:43;98704.44;;;73.85;4.28
23643;BME280;11998;55.788;37.572;2023-04-24T03:07:44;98694.81;;;74.25;4.39
23643;BME280;11998;55.788;37.572;2023-04-24T03:08:45;98689.72;;;72.01;4.54
23643;BME280;11998;55.788;37.572;2023-04-24T03:09:46;98693.63;;;71.31;4.57
23643;BME280;11998;55.788;37.572;2023-04-24T03:10:47;98694.22;;;72.62;4.30
23643;BME280;11998;55.788;37.572;2023-04-24T03:11:48;98696.19;;;70.87;4.79
23643;BME280;11998;55.788;37.572;2023-04-24T03:12:49;98686.19;;;72.06;4.42
23643;BME280;11998;55.788;37.572;2023-04-24T03:13:50;98694.56;;;71.28;4.61
23643;BME280;11998;55.788;37.572;2023-04-24T03:14:50;98695.00;;;71.13;4.68
23643;BME280;11998;55.788;37.572;2023-04-24T03:15:51;98684.47;;;69.80;4.99
23643;BME280;11998;55.788;37.572;2023-04-24T03:16:53;98694.63;;;70.53;4.78
23643;BME280;11998;55.788;37.572;2023-04-24T03:17:53;98693.09;;;71.07;4.89
23643;BME280;11998;55.788;37.572;2023-04-24T03:18:54;98697.56;;;71.11;4.71
23643;BME280;11998;55.788;37.572;2023-04-24T03:19:55;98701.28;;;72.52;4.38
23643;BME280;11998;55.788;37.572;2023-04-24T03:20:55;98698.75;;;71.26;4.80
23643;BME280;11998;55.788;37.572;2023-04-24T03:21:56;98684.56;;;70.09;5.07
23643;BME280;11998;55.788;37.572;2023-04-24T03:22:56;98696.38;;;70.34;4.83
23643;BME280;11998;55.788;37.572;2023-04-24T03:23:57;98696.84;;;70.78;4.71
23643;BME280;11998;55.788;37.572;2023-04-24T03:24:58;98701.13;;;71.57;4.54
23643;BME280;11998;55.788;37.572;2023-04-24T03:25:58;98700.72;;;70.88;4.95
23643;BME280;11998;55.788;37.572;2023-04-24T03:26:59;98704.28;;;70.79;5.03
23643;BME280;11998;55.788;37.572;2023-04-24T03:28:00;98698.03;;;72.50;4.31
23643;BME280;11998;55.788;37.572;2023-04-24T03:29:01;98707.09;;;72.86;4.15
23643;BME280;11998;55.788;37.572;2023-04-24T03:30:01;98701.97;;;70.58;4.57
23643;BME280;11998;55.788;37.572;2023-04-24T03:31:03;98710.88;;;71.38;4.52
23643;BME280;11998;55.788;37.572;2023-04-24T03:32:03;98693.34;;;69.73;5.15
23643;BME280;11998;55.788;37.572;2023-04-24T03:33:04;98703.31;;;71.40;4.83
23643;BME280;11998;55.788;37.572;2023-04-24T03:34:04;98713.03;;;72.95;4.30
23643;BME280;11998;55.788;37.572;2023-04-24T03:35:06;98704.91;;;70.87;4.52
23643;BME280;11998;55.788;37.572;2023-04-24T03:36:08;98702.66;;;71.87;4.45
23643;BME280;11998;55.788;37.572;2023-04-24T03:37:09;98707.84;;;72.30;4.50
23643;BME280;11998;55.788;37.572;2023-04-24T03:38:09;98703.53;;;73.35;4.09
23643;BME280;11998;55.788;37.572;2023-04-24T03:39:10;98708.94;;;72.71;4.54
23643;BME280;11998;55.788;37.572;2023-04-24T03:40:11;98707.72;;;74.05;4.27
23643;BME280;11998;55.788;37.572;2023-04-24T03:41:12;98716.19;;;74.03;4.00
23643;BME280;11998;55.788;37.572;2023-04-24T03:42:12;98716.38;;;74.18;4.06
23643;BME280;11998;55.788;37.572;2023-04-24T03:43:12;98713.88;;;73.27;4.03
23643;BME280;11998;55.788;37.572;2023-04-24T03:44:13;98715.97;;;75.02;4.20
23643;BME280;11998;55.788;37.572;2023-04-24T03:45:14;98717.25;;;74.55;3.89
23643;BME280;11998;55.788;37.572;2023-04-24T03:46:14;98718.56;;;75.18;3.57
23643;BME280;11998;55.788;37.572;2023-04-24T03:47:15;98714.69;;;74.76;3.91
23643;BME280;11998;55.788;37.572;2023-04-24T03:48:16;98717.28;;;74.74;4.05
23643;BME280;11998;55.788;37.572;2023-04-24T03:49:16;98731.44;;;77.81;3.32
23643;BME280;11998;55.788;37.572;2023-04-24T03:50:17;98724.06;;;76.58;3.51
23643;BME280;11998;55.788;37.572;2023-04-24T03:51:17;98740.78;;;79.01;3.49
23643;BME280;11998;55.788;37.572;2023-04-24T03:52:18;98743.94;;;80.83;3.23
23643;BME280;11998;55.788;37.572;2023-04-24T03:53:18;98747.75;;;81.68;3.12
23643;BME280;11998;55.788;37.572;2023-04-24T03:54:20;98749.66;;;81.49;3.10
23643;BME280;11998;55.788;37.572;2023-04-24T03:55:20;98747.50;;;81.77;2.91
23643;BME280;11998;55.788;37.572;2023-04-24T03:56:21;98754.25;;;81.38;2.74
23643;BME280;11998;55.788;37.572;2023-04-24T03:57:21;98755.00;;;82.01;2.71
23643;BME280;11998;55.788;37.572;2023-04-24T03:58:22;98758.03;;;83.41;2.83
23643;BME280;11998;55.788;37.572;2023-04-24T03:59:22;98750.03;;;82.31;2.84
23643;BME280;11998;55.788;37.572;2023-04-24T04:00:23;98759.06;;;83.98;2.69
23643;BME280;11998;55.788;37.572;2023-04-24T04:01:23;98762.78;;;84.04;2.35
23643;BME280;11998;55.788;37.572;2023-04-24T04:02:24;98764.34;;;84.92;2.42
23643;BME280;11998;55.788;37.572;2023-04-24T04:03:25;98771.28;;;86.17;2.18
23643;BME280;11998;55.788;37.572;2023-04-24T04:04:25;98773.03;;;87.07;2.13
23643;BME280;11998;55.788;37.572;2023-04-24T04:05:26;98782.50;;;88.46;2.04
23643;BME280;11998;55.788;37.572;2023-04-24T04:06:26;98767.28;;;88.73;1.96
23643;BME280;11998;55.788;37.572;2023-04-24T04:07:27;98767.97;;;88.50;2.10
23643;BME280;11998;55.788;37.572;2023-04-24T04:08:27;98768.16;;;89.04;1.98
23643;BME280;11998;55.788;37.572;2023-04-24T04:09:28;98777.34;;;89.74;1.83
23643;BME280;11998;55.788;37.572;2023-04-24T04:10:29;98767.63;;;90.29;1.67
23643;BME280;11998;55.788;37.572;2023-04-24T04:11:30;98767.19;;;90.41;1.88
23643;BME280;11998;55.788;37.572;2023-04-24T04:12:30;98769.31;;;90.96;1.83
23643;BME280;11998;55.788;37.572;2023-04-24T04:13:31;98763.53;;;91.65;1.70
23643;BME280;11998;55.788;37.572;2023-04-24T04:14:32;98762.69;;;92.07;1.81
23643;BME280;11998;55.788;37.572;2023-04-24T04:15:32;98756.47;;;92.39;1.54
23643;BME280;11998;55.788;37.572;2023-04-24T04:16:32;98760.59;;;92.88;1.75
23643;BME280;11998;55.788;37.572;2023-04-24T04:17:33;98748.28;;;92.67;1.56
23643;BME280;11998;55.788;37.572;2023-04-24T04:18:34;98761.84;;;93.22;1.48
23643;BME280;11998;55.788;37.572;2023-04-24T04:19:34;98752.31;;;93.62;1.45
23643;BME280;11998;55.788;37.572;2023-04-24T04:20:35;98735.59;;;92.32;1.49
23643;BME280;11998;55.788;37.572;2023-04-24T04:21:35;98748.50;;;93.71;1.47
23643;BME280;11998;55.788;37.572;2023-04-24T04:22:36;98739.03;;;90.84;1.70
23643;BME280;11998;55.788;37.572;2023-04-24T04:23:37;98753.34;;;93.01;1.51
23643;BME280;11998;55.788;37.572;2023-04-24T04:24:37;98740.97;;;92.33;1.58
23643;BME280;11998;55.788;37.572;2023-04-24T04:25:40;98748.91;;;93.38;1.67
23643;BME280;11998;55.788;37.572;2023-04-24T04:26:41;98751.53;;;94.00;1.40
23643;BME280;11998;55.788;37.572;2023-04-24T04:27:46;98755.84;;;94.76;1.23
23643;BME280;11998;55.788;37.572;2023-04-24T04:28:48;98748.03;;;94.13;1.42
23643;BME280;11998;55.788;37.572;2023-04-24T04:29:49;98736.44;;;92.24;1.64
23643;BME280;11998;55.788;37.572;2023-04-24T04:30:50;98740.13;;;92.77;1.62
23643;BME280;11998;55.788;37.572;2023-04-24T04:31:54;98750.28;;;94.22;1.49
23643;BME280;11998;55.788;37.572;2023-04-24T04:32:55;98745.50;;;94.10;1.51
23643;BME280;11998;55.788;37.572;2023-04-24T04:33:56;98748.50;;;94.39;1.51
23643;BME280;11998;55.788;37.572;2023-04-24T04:34:56;98744.72;;;93.90;1.51
23643;BME280;11998;55.788;37.572;2023-04-24T04:35:57;98746.63;;;93.20;1.63
23643;BME280;11998;55.788;37.572;2023-04-24T04:36:57;98741.91;;;92.63;1.45
23643;BME280;11998;55.788;37.572;2023-04-24T04:38:01;98734.97;;;91.81;1.74
23643;BME280;11998;55.788;37.572;2023-04-24T04:39:02;98730.50;;;91.48;1.60
23643;BME280;11998;55.788;37.572;2023-04-24T04:40:04;98748.56;;;93.25;1.53
23643;BME280;11998;55.788;37.572;2023-04-24T04:41:07;98751.84;;;94.23;1.41
23643;BME280;11998;55.788;37.572;2023-04-24T04:42:08;98760.13;;;95.14;1.22
23643;BME280;11998;55.788;37.572;2023-04-24T04:43:08;98757.28;;;94.66;1.45
23643;BME280;11998;55.788;37.572;2023-04-24T04:44:10;98759.00;;;95.72;1.31
23643;BME280;11998;55.788;37.572;2023-04-24T04:45:11;98762.78;;;95.29;1.34
23643;BME280;11998;55.788;37.572;2023-04-24T04:46:12;98754.44;;;95.40;1.28
23643;BME280;11998;55.788;37.572;2023-04-24T04:47:12;98755.09;;;95.59;1.13
23643;BME280;11998;55.788;37.572;2023-04-24T04:48:13;98750.72;;;95.94;1.22
23643;BME280;11998;55.788;37.572;2023-04-24T04:49:14;98754.47;;;96.15;1.52
23643;BME280;11998;55.788;37.572;2023-04-24T04:50:17;98754.38;;;96.82;1.35
23643;BME280;11998;55.788;37.572;2023-04-24T04:51:20;98762.28;;;97.10;1.10
23643;BME280;11998;55.788;37.572;2023-04-24T04:52:21;98742.84;;;95.46;1.48
23643;BME280;11998;55.788;37.572;2023-04-24T04:53:25;98743.19;;;95.61;1.26
23643;BME280;11998;55.788;37.572;2023-04-24T04:54:26;98747.09;;;96.07;1.21
23643;BME280;11998;55.788;37.572;2023-04-24T04:55:26;98751.69;;;96.08;1.11
23643;BME280;11998;55.788;37.572;2023-04-24T04:56:27;98751.59;;;96.62;1.07
23643;BME280;11998;55.788;37.572;2023-04-24T04:57:27;98748.47;;;96.27;1.22
23643;BME280;11998;55.788;37.572;2023-04-24T04:58:28;98747.41;;;95.25;1.35
23643;BME280;11998;55.788;37.572;2023-04-24T04:59:28;98750.25;;;96.09;1.26
23643;BME280;11998;55.788;37.572;2023-04-24T05:00:29;98749.94;;;95.29;1.17
23643;BME280;11998;55.788;37.572;2023-04-24T05:01:35;98754.06;;;96.42;1.21
23643;BME280;11998;55.788;37.572;2023-04-24T05:02:36;98751.94;;;97.62;1.19
23643;BME280;11998;55.788;37.572;2023-04-24T05:03:37;98752.66;;;98.11;0.94
23643;BME280;11998;55.788;37.572;2023-04-24T05:04:37;98749.56;;;98.62;0.99
23643;BME280;11998;55.788;37.572;2023-04-24T05:05:38;98746.50;;;99.15;0.71
23643;BME280;11998;55.788;37.572;2023-04-24T05:06:40;98738.50;;;98.81;1.03
23643;BME280;11998;55.788;37.572;2023-04-24T05:07:41;98732.28;;;97.26;1.09
23643;BME280;11998;55.788;37.572;2023-04-24T05:08:42;98742.00;;;98.10;1.14
23643;BME280;11998;55.788;37.572;2023-04-24T05:09:48;98734.31;;;98.60;0.85
23643;BME280;11998;55.788;37.572;2023-04-24T05:10:48;98739.44;;;98.44;1.00
23643;BME280;11998;55.788;37.572;2023-04-24T05:11:49;98743.22;;;99.11;1.18
23643;BME280;11998;55.788;37.572;2023-04-24T05:12:49;98734.25;;;98.33;1.18
23643;BME280;11998;55.788;37.572;2023-04-24T05:13:50;98744.59;;;99.08;1.14
23643;BME280;11998;55.788;37.572;2023-04-24T05:14:50;98736.34;;;98.17;0.92
23643;BME280;11998;55.788;37.572;2023-04-24T05:15:51;98741.69;;;98.44;1.15
23643;BME280;11998;55.788;37.572;2023-04-24T05:16:51;98741.31;;;99.32;0.88
23643;BME280;11998;55.788;37.572;2023-04-24T05:17:52;98754.81;;;99.29;1.20
23643;BME280;11998;55.788;37.572;2023-04-24T05:18:52;98754.06;;;99.71;0.86
23643;BME280;11998;55.788;37.572;2023-04-24T05:19:53;98752.19;;;99.94;1.02
23643;BME280;11998;55.788;37.572;2023-04-24T05:20:54;98746.44;;;100.93;1.12
23643;BME280;11998;55.788;37.572;2023-04-24T05:21:55;98735.16;;;98.88;0.81
23643;BME280;11998;55.788;37.572;2023-04-24T05:22:55;98725.75;;;98.43;0.95